Time;durP1;ratioP1;P1;durP2;ratioP2;P2;SDS_P1;SDS_P2;PMS_P1;PMS_P2;Temp;Humidity;BMP_temperature;BMP_pressure;BME280_temperature;BME280_humidity;BME280_pressure;Samples;Min_cycle;Max_cycle;Signal;HPM_P1;HPM_P2
2023/04/24 00:00:21;;;;;;;8.35;2.53;;;;;;;-143.48;100.00;118439.88;5054590;28;20024;-71
2023/04/24 00:02:46;;;;;;;4.75;2.58;;;;;;;-143.48;100.00;118439.88;5054873;28;20028;-72
2023/04/24 00:05:13;;;;;;;2.30;1.70;;;;;;;-143.48;100.00;118439.88;5054606;28;20353;-72
2023/04/24 00:07:40;;;;;;;2.58;1.40;;;;;;;-143.48;100.00;118439.88;5054470;28;20029;-71
2023/04/24 00:10:06;;;;;;;1.65;0.93;;;;;;;-143.48;100.00;118439.88;5054715;28;20021;-71
2023/04/24 00:12:31;;;;;;;2.28;0.88;;;;;;;-143.48;100.00;118439.88;5054854;28;20040;-72
2023/04/24 00:14:56;;;;;;;2.88;0.90;;;;;;;-143.48;100.00;118439.88;5036690;28;20017;-72
2023/04/24 00:17:22;;;;;;;2.55;0.75;;;;;;;-143.48;100.00;118439.88;5054519;28;20050;-71
2023/04/24 00:19:50;;;;;;;2.38;1.30;;;;;;;-143.48;100.00;118439.88;5035509;28;20024;-71
2023/04/24 00:22:15;;;;;;;2.65;1.58;;;;;;;-143.48;100.00;118439.88;5054144;28;20524;-71
2023/04/24 00:24:40;;;;;;;3.13;1.80;;;;;;;-143.48;100.00;118439.88;5054390;28;20144;-71
2023/04/24 00:27:06;;;;;;;2.65;1.60;;;;;;;-143.48;100.00;118439.88;5053801;28;20032;-70
2023/04/24 00:29:31;;;;;;;2.75;1.30;;;;;;;-143.48;100.00;118439.88;5054091;28;20032;-71
2023/04/24 00:31:57;;;;;;;2.80;1.10;;;;;;;-143.48;100.00;118439.88;5054275;28;20029;-71
2023/04/24 00:34:22;;;;;;;2.30;0.85;;;;;;;-143.48;100.00;118439.88;5053972;28;20017;-71
2023/04/24 00:36:51;;;;;;;1.45;0.75;;;;;;;-143.48;100.00;118439.88;5035897;28;20029;-72
2023/04/24 00:39:19;;;;;;;1.10;0.73;;;;;;;-143.48;100.00;118439.88;5054070;28;20032;-72
2023/04/24 00:41:46;;;;;;;2.40;1.20;;;;;;;-143.48;100.00;118439.88;5036192;28;20025;-71
2023/04/24 00:44:11;;;;;;;1.42;1.10;;;;;;;-143.48;100.00;118439.88;5054139;28;20027;-72
2023/04/24 00:46:37;;;;;;;2.65;1.58;;;;;;;-143.48;100.00;118439.88;5035981;28;20364;-72
2023/04/24 00:49:02;;;;;;;2.80;1.52;;;;;;;-143.48;100.00;118439.88;5036147;28;20024;-72
2023/04/24 00:51:28;;;;;;;2.65;1.75;;;;;;;-143.48;100.00;118439.88;5054033;28;20427;-71
2023/04/24 00:53:53;;;;;;;4.43;1.80;;;;;;;-143.48;100.00;118439.88;5035438;28;20033;-73
2023/04/24 00:56:19;;;;;;;2.67;1.73;;;;;;;-143.48;100.00;118439.88;5053853;28;20425;-72
2023/04/24 00:58:45;;;;;;;2.63;1.60;;;;;;;-143.48;100.00;118439.88;5053876;28;20028;-72
2023/04/24 01:01:11;;;;;;;4.28;1.48;;;;;;;-143.48;100.00;118439.88;5053500;28;20159;-72
2023/04/24 01:03:37;;;;;;;3.03;1.98;;;;;;;-143.48;100.00;118439.88;5053382;28;20021;-73
2023/04/24 01:06:04;;;;;;;4.13;2.00;;;;;;;-143.48;100.00;118439.88;5053429;28;20361;-73
2023/04/24 01:08:29;;;;;;;8.43;1.80;;;;;;;-143.48;100.00;118439.88;5053237;28;20109;-73
2023/04/24 01:10:57;;;;;;;2.08;1.30;;;;;;;-143.48;100.00;118439.88;5053319;28;20480;-72
2023/04/24 01:13:22;;;;;;;3.85;1.45;;;;;;;-143.48;100.00;118439.88;5035260;28;20025;-73
2023/04/24 01:15:48;;;;;;;5.32;1.58;;;;;;;-143.48;100.00;118439.88;5053134;28;20032;-72
2023/04/24 01:18:14;;;;;;;8.63;1.52;;;;;;;-143.48;100.00;118439.88;5052940;28;20037;-72
2023/04/24 01:20:41;;;;;;;2.20;1.13;;;;;;;-143.48;100.00;118439.88;5053441;28;20029;-72
2023/04/24 01:23:08;;;;;;;4.22;1.15;;;;;;;-143.48;100.00;118439.88;5053262;28;20025;-72
2023/04/24 01:25:34;;;;;;;2.50;1.42;;;;;;;-143.48;100.00;118439.88;5053044;28;20056;-72
2023/04/24 01:27:59;;;;;;;5.82;1.48;;;;;;;-143.48;100.00;118439.88;5053252;28;20485;-73
2023/04/24 01:30:26;;;;;;;4.20;1.00;;;;;;;-143.48;100.00;118439.88;5052987;28;20036;-72
2023/04/24 01:32:52;;;;;;;4.05;1.10;;;;;;;-143.48;100.00;118439.88;5053151;28;20488;-72
2023/04/24 01:35:18;;;;;;;3.63;1.20;;;;;;;-143.48;100.00;118439.88;5035116;28;20021;-71
2023/04/24 01:37:44;;;;;;;3.22;1.20;;;;;;;-143.48;100.00;118439.88;5035993;28;20029;-71
2023/04/24 01:40:09;;;;;;;1.60;1.38;;;;;;;-143.48;100.00;118439.88;5057046;28;20025;-72
2023/04/24 01:42:35;;;;;;;1.80;1.30;;;;;;;-143.48;100.00;118439.88;5056863;28;20472;-72
2023/04/24 01:45:03;;;;;;;2.42;1.50;;;;;;;-143.48;100.00;118439.88;5056702;28;20385;-72
2023/04/24 01:47:30;;;;;;;2.95;1.50;;;;;;;-143.48;100.00;118439.88;5038692;28;20049;-73
2023/04/24 01:49:55;;;;;;;2.05;1.33;;;;;;;-143.48;100.00;118439.88;5039095;28;20029;-72
2023/04/24 01:52:21;;;;;;;3.38;1.58;;;;;;;-143.48;100.00;118439.88;5038716;28;20400;-72
2023/04/24 01:54:46;;;;;;;3.13;1.45;;;;;;;-143.48;100.00;118439.88;5056725;28;20029;-72
2023/04/24 01:57:13;;;;;;;1.52;1.30;;;;;;;-143.48;100.00;118439.88;5056502;28;20057;-72
2023/04/24 01:59:38;;;;;;;3.65;1.40;;;;;;;-143.48;100.00;118439.88;5056497;28;20384;-72
2023/04/24 02:02:03;;;;;;;3.60;1.50;;;;;;;-143.48;100.00;118439.88;5038556;28;20025;-72
2023/04/24 02:04:29;;;;;;;2.55;1.40;;;;;;;-143.48;100.00;118439.88;5056609;28;20434;-71
2023/04/24 02:06:54;;;;;;;2.58;1.50;;;;;;;-143.48;100.00;118439.88;5038612;28;20031;-71
2023/04/24 02:09:20;;;;;;;4.30;1.52;;;;;;;-143.48;100.00;118439.88;5056442;28;20431;-72
2023/04/24 02:11:45;;;;;;;3.20;1.40;;;;;;;-143.48;100.00;118439.88;5056266;28;20032;-72
2023/04/24 02:14:10;;;;;;;2.92;1.40;;;;;;;-143.48;100.00;118439.88;5056183;28;20047;-71
2023/04/24 02:16:36;;;;;;;2.08;1.40;;;;;;;-143.48;100.00;118439.88;5038257;28;20029;-71
2023/04/24 02:19:02;;;;;;;2.03;1.40;;;;;;;-143.48;100.00;118439.88;5056030;28;20032;-71
2023/04/24 02:21:27;;;;;;;3.33;1.48;;;;;;;-143.48;100.00;118439.88;5056044;28;20565;-72
2023/04/24 02:23:53;;;;;;;2.90;1.30;;;;;;;-143.48;100.00;118439.88;5038261;28;20021;-72
2023/04/24 02:26:19;;;;;;;1.85;1.30;;;;;;;-143.48;100.00;118439.88;5056170;28;20021;-72
2023/04/24 02:28:44;;;;;;;3.10;1.35;;;;;;;-143.48;100.00;118439.88;5055917;28;20083;-72
2023/04/24 02:31:10;;;;;;;2.10;1.10;;;;;;;-143.48;100.00;118439.88;5055842;28;20025;-72
2023/04/24 02:33:35;;;;;;;1.38;1.10;;;;;;;-143.48;100.00;118439.88;5055762;28;20060;-70
2023/04/24 02:36:02;;;;;;;2.25;1.20;;;;;;;-143.48;100.00;118439.88;5055799;28;20075;-71
2023/04/24 02:38:27;;;;;;;5.00;1.05;;;;;;;-143.48;100.00;118439.88;5055598;28;20039;-71
2023/04/24 02:40:52;;;;;;;2.92;0.88;;;;;;;-143.48;100.00;118439.88;5037844;28;20119;-71
2023/04/24 02:43:17;;;;;;;1.70;1.00;;;;;;;-143.48;100.00;118439.88;5055906;28;20430;-72
2023/04/24 02:45:43;;;;;;;2.05;0.80;;;;;;;-143.48;100.00;118439.88;5055943;28;20436;-72
2023/04/24 02:48:08;;;;;;;2.88;1.13;;;;;;;-143.48;100.00;118439.88;5033959;28;20050;-72
2023/04/24 02:50:33;;;;;;;1.90;1.33;;;;;;;-143.48;100.00;118439.88;5035926;28;20025;-72
2023/04/24 02:52:59;;;;;;;3.53;1.10;;;;;;;-143.48;100.00;118439.88;5035684;28;20025;-73
2023/04/24 02:55:24;;;;;;;1.98;1.15;;;;;;;-143.48;100.00;118439.88;5035651;28;20025;-72
2023/04/24 02:57:50;;;;;;;2.20;1.40;;;;;;;-143.48;100.00;118439.88;5034137;28;20033;-72
2023/04/24 03:00:16;;;;;;;3.83;1.60;;;;;;;-143.48;100.00;118439.88;5035481;28;20056;-72
2023/04/24 03:02:41;;;;;;;2.65;1.67;;;;;;;-143.48;100.00;118439.88;5034278;28;20029;-72
2023/04/24 03:05:07;;;;;;;5.03;1.75;;;;;;;-143.48;100.00;118439.88;5034278;28;20392;-72
2023/04/24 03:07:32;;;;;;;5.63;1.80;;;;;;;-143.48;100.00;118439.88;5035275;28;20053;-72
2023/04/24 03:09:58;;;;;;;5.18;1.90;;;;;;;-143.48;100.00;118439.88;5035433;28;20022;-72
2023/04/24 03:12:23;;;;;;;4.60;2.00;;;;;;;-143.48;100.00;118439.88;5035299;28;20428;-73
2023/04/24 03:14:49;;;;;;;3.17;1.83;;;;;;;-143.48;100.00;118439.88;5033782;28;20068;-72
2023/04/24 03:17:14;;;;;;;4.75;2.10;;;;;;;-143.48;100.00;118439.88;5035271;28;20384;-72
2023/04/24 03:19:39;;;;;;;4.68;1.98;;;;;;;-143.48;100.00;118439.88;5034912;28;20025;-72
2023/04/24 03:22:05;;;;;;;2.83;2.20;;;;;;;-143.48;100.00;118439.88;5033677;28;20033;-73
2023/04/24 03:24:30;;;;;;;3.42;2.25;;;;;;;-143.48;100.00;118439.88;5035032;28;20100;-72
2023/04/24 03:26:56;;;;;;;5.13;2.00;;;;;;;-143.48;100.00;118439.88;5035235;28;20067;-72
2023/04/24 03:29:22;;;;;;;4.15;2.00;;;;;;;-143.48;100.00;118439.88;5033721;28;20030;-72
2023/04/24 03:31:47;;;;;;;3.42;2.05;;;;;;;-143.48;100.00;118439.88;5034909;28;20385;-72
2023/04/24 03:34:12;;;;;;;3.25;2.15;;;;;;;-143.48;100.00;118439.88;5034770;28;20029;-73
2023/04/24 03:36:38;;;;;;;4.10;2.00;;;;;;;-143.48;100.00;118439.88;5033367;28;20088;-72
2023/04/24 03:39:03;;;;;;;3.53;2.10;;;;;;;-143.48;100.00;118439.88;5033564;28;20029;-72
2023/04/24 03:41:30;;;;;;;3.13;2.10;;;;;;;-143.48;100.00;118439.88;5034744;28;20026;-71
2023/04/24 03:43:55;;;;;;;3.92;2.00;;;;;;;-143.48;100.00;118439.88;5034614;28;20025;-72
2023/04/24 03:46:20;;;;;;;3.35;2.28;;;;;;;-143.48;100.00;118439.88;5034617;28;20109;-72
2023/04/24 03:48:46;;;;;;;3.70;2.40;;;;;;;-143.48;100.00;118439.88;5051341;28;20045;-72
2023/04/24 03:51:11;;;;;;;4.30;2.13;;;;;;;-143.48;100.00;118439.88;5054284;28;20028;-72
2023/04/24 03:53:36;;;;;;;5.30;2.40;;;;;;;-143.48;100.00;118439.88;5036462;28;20028;-72
2023/04/24 03:56:03;;;;;;;4.72;2.30;;;;;;;-143.48;100.00;118439.88;5054432;28;20053;-72
2023/04/24 03:58:28;;;;;;;2.97;2.10;;;;;;;-143.48;100.00;118439.88;5036471;28;20024;-73
2023/04/24 04:00:53;;;;;;;3.15;1.90;;;;;;;-143.48;100.00;118439.88;5053297;28;20025;-72
2023/04/24 04:03:19;;;;;;;2.20;1.60;;;;;;;-143.48;100.00;118439.88;5054053;28;20019;-72
2023/04/24 04:05:44;;;;;;;2.55;1.40;;;;;;;-143.48;100.00;118439.88;5054219;28;20021;-72
2023/04/24 04:08:10;;;;;;;2.92;1.55;;;;;;;-143.48;100.00;118439.88;5054179;28;20099;-73
2023/04/24 04:10:35;;;;;;;5.15;1.77;;;;;;;-143.48;100.00;118439.88;5054100;28;20035;-73
2023/04/24 04:13:00;;;;;;;2.72;1.48;;;;;;;-143.48;100.00;118439.88;5053931;28;20435;-73
2023/04/24 04:15:26;;;;;;;2.53;1.73;;;;;;;-143.48;100.00;118439.88;5036152;28;20041;-72
2023/04/24 04:17:51;;;;;;;3.92;2.10;;;;;;;-143.48;100.00;118439.88;5053788;28;20380;-71
2023/04/24 04:20:16;;;;;;;3.00;2.05;;;;;;;-143.48;100.00;118439.88;5035877;28;20024;-71
2023/04/24 04:22:42;;;;;;;7.45;1.80;;;;;;;-143.48;100.00;118439.88;5053793;28;20044;-72
2023/04/24 04:25:08;;;;;;;2.83;1.90;;;;;;;-143.48;100.00;118439.88;5053952;28;20487;-72
2023/04/24 04:27:34;;;;;;;5.32;2.22;;;;;;;-143.48;100.00;118439.88;5053920;28;20039;-72
2023/04/24 04:30:04;;;;;;;4.45;1.80;;;;;;;-143.48;100.00;118439.88;5053780;28;20052;-72
2023/04/24 04:32:30;;;;;;;3.40;1.75;;;;;;;-143.48;100.00;118439.88;5053688;28;20135;-72
2023/04/24 04:34:55;;;;;;;5.25;2.20;;;;;;;-143.48;100.00;118439.88;5053742;28;20048;-72
2023/04/24 04:37:20;;;;;;;4.05;2.17;;;;;;;-143.48;100.00;118439.88;5053704;28;20032;-71
2023/04/24 04:39:46;;;;;;;5.93;2.10;;;;;;;-143.48;100.00;118439.88;5035733;28;20032;-72
2023/04/24 04:42:11;;;;;;;2.72;2.00;;;;;;;-143.48;100.00;118439.88;5053617;28;20025;-72
2023/04/24 04:44:38;;;;;;;2.85;2.00;;;;;;;-143.48;100.00;118439.88;5053480;28;20017;-72
2023/04/24 04:47:05;;;;;;;6.47;2.33;;;;;;;-143.48;100.00;118439.88;5035409;28;20052;-71
2023/04/24 04:49:31;;;;;;;4.38;2.20;;;;;;;-143.48;100.00;118439.88;5053893;28;20033;-72
2023/04/24 04:51:57;;;;;;;2.70;2.00;;;;;;;-143.48;100.00;118439.88;5053613;28;20452;-73
2023/04/24 04:54:22;;;;;;;5.97;2.30;;;;;;;-143.48;100.00;118439.88;5053365;28;20103;-72
2023/04/24 04:56:50;;;;;;;5.05;2.00;;;;;;;-143.48;100.00;118439.88;5053861;28;20025;-73
2023/04/24 04:59:15;;;;;;;5.68;2.20;;;;;;;-143.48;100.00;118439.88;5054440;28;20052;-73
2023/04/24 05:01:41;;;;;;;5.20;2.40;;;;;;;-143.48;100.00;118439.88;5056134;28;20029;-72
2023/04/24 05:04:06;;;;;;;3.95;1.95;;;;;;;-143.48;100.00;118439.88;5037469;28;20021;-72
2023/04/24 05:06:31;;;;;;;3.47;2.05;;;;;;;-143.48;100.00;118439.88;5053526;28;20117;-72
2023/04/24 05:08:57;;;;;;;3.28;1.80;;;;;;;-143.48;100.00;118439.88;5053499;28;20053;-72
2023/04/24 05:11:22;;;;;;;3.53;1.80;;;;;;;-143.48;100.00;118439.88;5053591;28;20025;-72
2023/04/24 05:13:48;;;;;;;2.28;1.85;;;;;;;-143.48;100.00;118439.88;5057484;28;20029;-72
2023/04/24 05:16:13;;;;;;;3.05;1.70;;;;;;;-143.48;100.00;118439.88;5057435;28;20112;-72
2023/04/24 05:18:38;;;;;;;4.85;1.83;;;;;;;-143.48;100.00;118439.88;5057423;28;20088;-72
2023/04/24 05:21:04;;;;;;;2.42;1.23;;;;;;;-143.48;100.00;118439.88;5057452;28;20025;-73
2023/04/24 05:23:29;;;;;;;2.13;1.00;;;;;;;-143.48;100.00;118439.88;5057365;28;20056;-73
2023/04/24 05:25:54;;;;;;;2.38;1.10;;;;;;;-143.48;100.00;118439.88;5039574;28;20020;-72
2023/04/24 05:28:20;;;;;;;1.55;1.00;;;;;;;-143.48;100.00;118439.88;5057301;28;20032;-71
2023/04/24 05:30:46;;;;;;;2.97;1.27;;;;;;;-143.48;100.00;118439.88;5039519;28;20468;-72
2023/04/24 05:33:11;;;;;;;1.85;1.10;;;;;;;-143.48;100.00;118439.88;5057537;28;20028;-72
2023/04/24 05:35:36;;;;;;;3.28;1.13;;;;;;;-143.48;100.00;118439.88;5058174;28;20025;-72
2023/04/24 05:38:02;;;;;;;4.25;1.27;;;;;;;-143.48;100.00;118439.88;5061149;28;20052;-73
2023/04/24 05:40:28;;;;;;;5.40;1.90;;;;;;;-143.48;100.00;118439.88;5059386;28;20491;-72
2023/04/24 05:42:53;;;;;;;3.10;1.30;;;;;;;-143.48;100.00;118439.88;5063879;28;20028;-72
2023/04/24 05:45:19;;;;;;;3.58;1.85;;;;;;;-143.48;100.00;118439.88;5043087;28;20028;-72
2023/04/24 05:47:44;;;;;;;3.90;1.75;;;;;;;-143.48;100.00;118439.88;5045611;28;20488;-71
2023/04/24 05:50:11;;;;;;;3.15;1.60;;;;;;;-143.48;100.00;118439.88;5062804;28;20028;-72
2023/04/24 05:52:36;;;;;;;2.83;1.30;;;;;;;-143.48;100.00;118439.88;5066107;28;20399;-72
2023/04/24 05:55:01;;;;;;;4.03;1.98;;;;;;;-143.48;100.00;118439.88;5040031;28;20052;-73
2023/04/24 05:57:27;;;;;;;2.08;1.17;;;;;;;-143.48;100.00;118439.88;5041276;28;20035;-73
2023/04/24 05:59:52;;;;;;;1.77;0.88;;;;;;;-143.48;100.00;118439.88;5061987;28;20357;-71
2023/04/24 06:02:17;;;;;;;4.13;0.70;;;;;;;-143.48;100.00;118439.88;5061188;28;20017;-72
2023/04/24 06:04:43;;;;;;;3.75;0.90;;;;;;;-143.48;100.00;118439.88;5061577;28;20050;-71
2023/04/24 06:07:10;;;;;;;1.35;0.90;;;;;;;-143.48;100.00;118439.88;5061312;28;20104;-72
2023/04/24 06:09:36;;;;;;;4.13;1.50;;;;;;;-143.48;100.00;118439.88;5062315;28;20020;-71
2023/04/24 06:12:02;;;;;;;7.25;3.83;;;;;;;-143.48;100.00;118439.88;5066285;28;20056;-73
2023/04/24 06:14:27;;;;;;;14.75;6.05;;;;;;;-143.48;100.00;118439.88;5039468;28;20031;-72
2023/04/24 06:16:53;;;;;;;16.13;7.07;;;;;;;-143.48;100.00;118439.88;5056582;28;20647;-73
2023/04/24 06:19:18;;;;;;;16.90;8.65;;;;;;;-143.48;100.00;118439.88;5038933;28;20048;-73
2023/04/24 06:21:43;;;;;;;18.20;9.18;;;;;;;-143.48;100.00;118439.88;5056391;28;20491;-72
2023/04/24 06:24:08;;;;;;;19.10;9.55;;;;;;;-143.48;100.00;118439.88;5055814;28;20053;-72
2023/04/24 06:26:34;;;;;;;17.17;9.85;;;;;;;-143.48;100.00;118439.88;5058098;28;20099;-71
2023/04/24 06:29:00;;;;;;;25.02;10.45;;;;;;;-143.48;100.00;118439.88;5057690;28;20024;-72
2023/04/24 06:31:25;;;;;;;24.02;10.55;;;;;;;-143.48;100.00;118439.88;5056915;28;20452;-73
2023/04/24 06:33:50;;;;;;;24.33;11.10;;;;;;;-143.48;100.00;118439.88;5056871;28;20032;-72
2023/04/24 06:36:16;;;;;;;21.67;10.23;;;;;;;-143.48;100.00;118439.88;5042625;28;20083;-73
2023/04/24 06:38:42;;;;;;;19.55;9.80;;;;;;;-143.48;100.00;118439.88;5039239;28;20056;-73
2023/04/24 06:41:07;;;;;;;19.92;9.80;;;;;;;-143.48;100.00;118439.88;5056283;28;20028;-73
2023/04/24 06:43:33;;;;;;;18.25;9.00;;;;;;;-143.48;100.00;118439.88;5055861;28;20025;-72
2023/04/24 06:46:00;;;;;;;19.17;8.60;;;;;;;-143.48;100.00;118439.88;5055870;28;20029;-72
2023/04/24 06:48:25;;;;;;;14.95;8.55;;;;;;;-143.48;100.00;118439.88;5056129;28;20060;-73
2023/04/24 06:50:51;;;;;;;19.00;8.10;;;;;;;-143.48;100.00;118439.88;5055936;28;20400;-73
2023/04/24 06:53:16;;;;;;;16.77;7.90;;;;;;;-143.48;100.00;118439.88;5070326;28;20035;-72
2023/04/24 06:55:44;;;;;;;14.60;8.00;;;;;;;-143.48;100.00;118439.88;5070654;28;20025;-71
2023/04/24 06:58:10;;;;;;;20.35;8.15;;;;;;;-143.48;100.00;118439.88;5052426;28;20048;-73
2023/04/24 07:00:36;;;;;;;14.75;7.93;;;;;;;-143.48;100.00;118439.88;5073857;28;20065;-72
2023/04/24 07:03:02;;;;;;;16.58;7.35;;;;;;;-143.48;100.00;118439.88;5060872;28;20040;-72
2023/04/24 07:05:28;;;;;;;19.08;7.25;;;;;;;-143.48;100.00;118439.88;5055343;28;20020;-72
2023/04/24 07:07:53;;;;;;;18.88;8.32;;;;;;;-143.48;100.00;118439.88;5070829;28;20025;-73
2023/04/24 07:10:20;;;;;;;16.20;7.72;;;;;;;-143.48;100.00;118439.88;5059435;22;20046;-34
2023/04/24 07:12:46;;;;;;;16.58;7.72;;;;;;;-143.48;100.00;118439.88;5033836;28;20021;-34
2023/04/24 07:15:12;;;;;;;17.00;7.18;;;;;;;-143.48;100.00;118439.88;5050668;28;20061;-34
2023/04/24 07:17:38;;;;;;;13.48;6.95;;;;;;;-143.48;100.00;118439.88;5033726;28;20450;-34
2023/04/24 07:20:05;;;;;;;16.20;7.15;;;;;;;-143.48;100.00;118439.88;5033711;28;20060;-34
2023/04/24 07:22:30;;;;;;;17.15;7.53;;;;;;;-143.48;100.00;118439.88;5035511;28;20036;-34
2023/04/24 07:24:56;;;;;;;15.73;7.00;;;;;;;-143.48;100.00;118439.88;5034766;28;20047;-33
2023/04/24 07:27:21;;;;;;;15.60;7.20;;;;;;;-143.48;100.00;118439.88;5034629;28;20049;-33
2023/04/24 07:29:46;;;;;;;15.27;6.55;;;;;;;-143.48;100.00;118439.88;5034672;28;20037;-33
2023/04/24 07:32:12;;;;;;;16.73;6.75;;;;;;;-143.48;100.00;118439.88;5035082;28;20022;-33
2023/04/24 07:34:37;;;;;;;18.70;7.20;;;;;;;-143.48;100.00;118439.88;5035104;28;20025;-33
2023/04/24 07:37:03;;;;;;;16.98;7.32;;;;;;;-143.48;100.00;118439.88;5034709;28;20133;-33
2023/04/24 07:39:29;;;;;;;18.52;7.40;;;;;;;-143.48;100.00;118439.88;5034437;28;20021;-33
2023/04/24 07:41:54;;;;;;;15.02;6.70;;;;;;;-143.48;100.00;118439.88;5033328;28;20468;-33
2023/04/24 07:44:19;;;;;;;16.48;5.93;;;;;;;-143.48;100.00;118439.88;5034370;28;20028;-33
2023/04/24 07:46:45;;;;;;;18.83;6.68;;;;;;;-143.48;100.00;118439.88;5034532;28;20442;-33
2023/04/24 07:49:10;;;;;;;19.10;5.53;;;;;;;-143.48;100.00;118439.88;5034428;28;20128;-33
2023/04/24 07:51:38;;;;;;;16.77;5.53;;;;;;;-143.48;100.00;118439.88;5033460;28;20033;-33
2023/04/24 07:54:07;;;;;;;13.70;4.40;;;;;;;-143.48;100.00;118439.88;5034604;28;20357;-33
2023/04/24 07:56:33;;;;;;;15.65;4.60;;;;;;;-143.48;100.00;118439.88;5034294;28;20108;-33
2023/04/24 07:58:58;;;;;;;9.88;4.80;;;;;;;-143.48;100.00;118439.88;5034231;28;20056;-33
2023/04/24 08:01:24;;;;;;;24.23;4.45;;;;;;;-143.48;100.00;118439.88;5034405;28;20029;-33
2023/04/24 08:03:50;;;;;;;18.15;4.93;;;;;;;-143.48;100.00;118439.88;5034371;28;20021;-33
2023/04/24 08:06:15;;;;;;;13.38;4.35;;;;;;;-143.48;100.00;118439.88;5034181;28;20049;-34
2023/04/24 08:08:41;;;;;;;14.63;4.10;;;;;;;-143.48;100.00;118439.88;5034087;28;20069;-34
2023/04/24 08:11:06;;;;;;;14.18;3.90;;;;;;;-143.48;100.00;118439.88;5047678;28;20048;-34
2023/04/24 08:13:31;;;;;;;11.65;3.50;;;;;;;-143.48;100.00;118439.88;5053806;28;20031;-34
2023/04/24 08:15:57;;;;;;;17.52;3.60;;;;;;;-143.48;100.00;118439.88;5054134;28;20037;-34
2023/04/24 08:18:22;;;;;;;11.32;3.85;;;;;;;-143.48;100.00;118439.88;5054041;28;20025;-34
2023/04/24 08:20:48;;;;;;;15.05;3.40;;;;;;;-143.48;100.00;118439.88;5053837;28;20029;-34
2023/04/24 08:23:13;;;;;;;16.48;4.65;;;;;;;-143.48;100.00;118439.88;5054013;28;20025;-34
2023/04/24 08:25:39;;;;;;;19.38;4.22;;;;;;;-143.48;100.00;118439.88;5053706;28;20017;-34
2023/04/24 08:28:06;;;;;;;21.48;4.38;;;;;;;-143.48;100.00;118439.88;5054302;28;20107;-34
2023/04/24 08:30:31;;;;;;;18.45;3.70;;;;;;;-143.48;100.00;118439.88;5054140;28;20028;-34
2023/04/24 08:32:57;;;;;;;20.63;3.80;;;;;;;-143.48;100.00;118439.88;5053802;28;20032;-34
2023/04/24 08:35:23;;;;;;;20.95;3.75;;;;;;;-143.48;100.00;118439.88;5053464;28;20029;-34
2023/04/24 08:37:48;;;;;;;21.02;3.40;;;;;;;-143.48;100.00;118439.88;5053770;28;20033;-34
2023/04/24 08:40:15;;;;;;;15.35;3.10;;;;;;;-143.48;100.00;118439.88;5053529;28;20071;-34
2023/04/24 08:42:43;;;;;;;21.90;3.22;;;;;;;-143.48;100.00;118439.88;5054060;28;20115;-34
2023/04/24 08:45:10;;;;;;;13.68;3.40;;;;;;;-143.48;99.44;118439.88;5053634;28;20360;-34
2023/04/24 08:47:37;;;;;;;13.98;2.95;;;;;;;-143.48;97.96;118439.88;5053238;28;20045;-34
2023/04/24 08:50:03;;;;;;;18.27;3.53;;;;;;;-143.48;98.45;118439.88;5053635;28;20032;-34
2023/04/24 08:52:29;;;;;;;15.25;2.95;;;;;;;-143.48;96.73;118439.88;5053319;28;20033;-34
2023/04/24 08:54:56;;;;;;;12.77;2.65;;;;;;;-143.48;96.57;118439.88;5053324;28;20100;-34
2023/04/24 08:57:22;;;;;;;12.63;2.35;;;;;;;-143.48;96.11;118439.88;5035532;28;20483;-34
2023/04/24 08:59:48;;;;;;;12.18;2.47;;;;;;;-143.48;95.00;118439.88;5053395;28;20054;-34
2023/04/24 09:02:15;;;;;;;11.43;2.63;;;;;;;-143.48;95.49;118439.88;5035428;28;20029;-34
2023/04/24 09:04:43;;;;;;;16.25;2.70;;;;;;;-143.48;92.99;118439.88;5053602;28;20027;-34
2023/04/24 09:07:10;;;;;;;11.07;2.35;;;;;;;-143.48;94.13;118439.88;5035283;28;20062;-34
2023/04/24 09:09:37;;;;;;;17.08;2.95;;;;;;;-143.48;94.23;118439.88;5053022;28;20071;-33
2023/04/24 09:12:03;;;;;;;15.85;3.00;;;;;;;-143.48;94.55;118439.88;5053222;28;20021;-34
2023/04/24 09:14:31;;;;;;;17.38;2.72;;;;;;;-143.48;92.86;118439.88;5035116;28;20056;-34
2023/04/24 09:16:56;;;;;;;13.13;3.00;;;;;;;-143.48;92.51;118439.88;5053386;28;20369;-33
2023/04/24 09:19:22;;;;;;;12.60;2.50;;;;;;;-143.48;91.88;118439.88;5053072;28;20051;-34
2023/04/24 09:21:48;;;;;;;18.67;3.22;;;;;;;-143.48;91.12;118439.88;5052136;28;20032;-35
2023/04/24 09:24:20;;;;;;;14.05;2.78;;;;;;;-143.48;90.95;118439.88;5051827;28;20139;-34
2023/04/24 09:26:45;;;;;;;11.52;2.60;;;;;;;-143.48;90.48;118439.88;5053014;28;20029;-34
2023/04/24 09:29:18;;;;;;;13.02;2.78;;;;;;;-143.48;89.09;118439.88;5053156;28;20028;-34
2023/04/24 09:31:45;;;;;;;12.43;2.63;;;;;;;-143.48;90.62;118439.88;5034776;28;20025;-34
2023/04/24 09:34:10;;;;;;;10.15;2.55;;;;;;;-143.48;89.43;118439.88;5052455;28;20036;-34
2023/04/24 09:36:38;;;;;;;9.27;2.40;;;;;;;-143.48;89.08;118439.88;5053063;28;20459;-34
2023/04/24 09:39:06;;;;;;;14.88;2.90;;;;;;;-143.48;88.93;118439.88;5052925;28;20052;-34
2023/04/24 09:41:32;;;;;;;13.75;2.58;;;;;;;-143.48;91.53;118439.88;5052762;28;20029;-34
2023/04/24 09:44:12;;;;;;;10.30;2.55;;;;;;;-143.48;89.52;118439.88;5053152;28;20028;-34
2023/04/24 09:46:37;;;;;;;14.73;3.38;;;;;;;-143.48;89.57;118439.88;5053161;28;20108;-35
2023/04/24 09:49:13;;;;;;;13.77;2.67;;;;;;;-143.48;88.90;118439.88;5053113;28;20057;-34
2023/04/24 09:51:39;;;;;;;9.07;2.38;;;;;;;-143.48;86.02;118439.88;5052401;28;20418;-34
2023/04/24 09:54:13;;;;;;;12.23;2.45;;;;;;;-143.48;84.60;118439.88;5052590;28;20112;-34
2023/04/24 09:56:42;;;;;;;9.27;2.42;;;;;;;-143.48;85.14;118439.88;5052669;28;20162;-34
2023/04/24 09:59:08;;;;;;;7.53;2.05;;;;;;;-143.48;84.08;118439.88;5054387;28;20028;-34
2023/04/24 10:01:34;;;;;;;11.77;2.30;;;;;;;-143.48;87.36;118439.88;5056375;28;20460;-34
2023/04/24 10:03:59;;;;;;;9.80;2.50;;;;;;;-143.48;85.59;118439.88;5056396;28;20025;-34
2023/04/24 10:06:33;;;;;;;6.00;1.92;;;;;;;-143.48;88.04;118439.88;5056467;28;20036;-34
2023/04/24 10:08:59;;;;;;;12.60;2.30;;;;;;;-143.48;88.39;118439.88;5038599;28;20056;-34
2023/04/24 10:11:27;;;;;;;8.07;2.05;;;;;;;-143.48;85.31;118439.88;5056077;28;20045;-34
2023/04/24 10:13:53;;;;;;;11.45;2.10;;;;;;;-143.48;84.40;118439.88;5056111;28;20108;-33
2023/04/24 10:16:21;;;;;;;9.13;2.10;;;;;;;-143.48;79.64;118439.88;5056526;28;20366;-34
2023/04/24 10:18:48;;;;;;;6.45;1.58;;;;;;;-143.48;82.18;118439.88;5056226;28;20109;-34
2023/04/24 10:21:14;;;;;;;4.72;1.60;;;;;;;-143.48;80.32;118439.88;5056397;28;20017;-34
2023/04/24 10:23:41;;;;;;;6.70;1.70;;;;;;;-143.48;77.81;118439.88;5056517;28;20020;-34
2023/04/24 10:26:09;;;;;;;8.02;1.65;;;;;;;-143.48;77.17;118439.88;5056533;28;20028;-34
2023/04/24 10:28:36;;;;;;;6.13;2.00;;;;;;;-143.48;77.45;118439.88;5056290;28;20021;-34
2023/04/24 10:31:02;;;;;;;6.43;1.90;;;;;;;-143.48;79.20;118439.88;5056423;28;20107;-34
2023/04/24 10:33:29;;;;;;;3.70;1.30;;;;;;;-143.48;79.19;118439.88;5055768;28;20112;-34
2023/04/24 10:35:56;;;;;;;4.85;1.58;;;;;;;-143.48;81.55;118439.88;5055785;28;20471;-34
2023/04/24 10:38:26;;;;;;;9.07;1.65;;;;;;;-143.48;80.76;118439.88;5056071;28;20211;-34
2023/04/24 10:40:58;;;;;;;6.22;1.38;;;;;;;-143.48;84.45;118439.88;5055968;28;20021;-33
2023/04/24 10:43:23;;;;;;;11.00;1.95;;;;;;;-143.48;83.61;118439.88;5037714;28;20028;-33
2023/04/24 10:46:03;;;;;;;9.68;1.67;;;;;;;-143.48;91.50;118439.88;5055572;28;20033;-33
2023/04/24 10:48:29;;;;;;;10.95;1.50;;;;;;;-143.48;92.29;118439.88;5055795;28;20025;-34
2023/04/24 10:50:54;;;;;;;6.95;1.50;;;;;;;-143.48;92.76;118439.88;5055407;28;20416;-33
2023/04/24 10:53:26;;;;;;;6.72;1.50;;;;;;;-143.48;91.72;118439.88;5055675;28;20025;-33